Time;durP1;ratioP1;P1;durP2;ratioP2;P2;SDS_P1;SDS_P2;PMS_P1;PMS_P2;Temp;Humidity;BMP_temperature;BMP_pressure;BME280_temperature;BME280_humidity;BME280_pressure;Samples;Min_cycle;Max_cycle;Signal;HPM_P1;HPM_P2
2024/03/06 00:01:54;;;;;;;26.38;11.30;;;4.90;99.90;;;;;;5036112;28;20022;-77
2024/03/06 00:04:20;;;;;;;21.52;10.80;;;4.80;99.90;;;;;;5035686;28;20025;-77
2024/03/06 00:06:46;;;;;;;21.50;10.98;;;4.90;99.90;;;;;;5035775;28;20073;-77
2024/03/06 00:09:11;;;;;;;24.58;11.48;;;4.90;99.90;;;;;;5034506;28;20029;-77
2024/03/06 00:11:37;;;;;;;25.00;12.65;;;4.90;99.90;;;;;;5034414;28;20485;-77
2024/03/06 00:14:05;;;;;;;25.83;11.68;;;4.90;99.90;;;;;;5035499;28;20492;-77
2024/03/06 00:16:31;;;;;;;26.25;11.52;;;5.00;99.90;;;;;;5035332;28;20104;-78
2024/03/06 00:18:56;;;;;;;24.48;12.38;;;5.00;99.90;;;;;;5035604;28;20017;-77
2024/03/06 00:21:23;;;;;;;23.30;11.40;;;5.00;99.90;;;;;;5036023;28;20072;-77
2024/03/06 00:23:48;;;;;;;22.77;11.68;;;5.00;99.90;;;;;;5035925;28;20378;-77
2024/03/06 00:26:14;;;;;;;25.02;12.48;;;5.10;99.90;;;;;;5034780;28;20013;-77
2024/03/06 00:28:39;;;;;;;26.25;12.50;;;5.20;99.90;;;;;;5035657;28;20029;-77
2024/03/06 00:31:05;;;;;;;23.95;11.85;;;5.20;99.90;;;;;;5035156;28;20108;-77
2024/03/06 00:33:31;;;;;;;24.80;12.63;;;5.20;99.90;;;;;;5035595;28;20112;-77
2024/03/06 00:35:57;;;;;;;24.50;12.15;;;5.30;99.90;;;;;;5035538;28;20465;-77
2024/03/06 00:38:23;;;;;;;31.27;13.55;;;5.40;99.90;;;;;;5035100;28;20025;-77
2024/03/06 00:40:49;;;;;;;26.83;12.57;;;5.60;99.90;;;;;;5033750;28;20366;-77
2024/03/06 00:43:15;;;;;;;22.02;12.15;;;6.60;99.90;;;;;;5033659;28;20040;-77
2024/03/06 00:45:40;;;;;;;26.10;12.88;;;5.50;99.90;;;;;;5033796;28;20533;-78
2024/03/06 00:48:06;;;;;;;26.77;12.20;;;4.20;99.90;;;;;;5034166;28;20067;-77
2024/03/06 00:50:32;;;;;;;28.45;13.23;;;5.50;99.90;;;;;;5034077;28;20021;-77
2024/03/06 00:52:58;;;;;;;27.98;13.60;;;5.60;99.90;;;;;;5034034;28;20025;-77
2024/03/06 00:55:23;;;;;;;28.55;13.75;;;5.50;99.90;;;;;;5035026;28;20096;-76
2024/03/06 00:57:49;;;;;;;25.80;12.98;;;5.50;99.90;;;;;;5033631;28;20024;-79
2024/03/06 01:00:16;;;;;;;27.33;12.90;;;5.60;99.90;;;;;;5035903;28;20061;-78
2024/03/06 01:02:41;;;;;;;27.40;13.45;;;5.60;99.90;;;;;;5034652;28;20045;-79
2024/03/06 01:05:09;;;;;;;26.65;13.68;;;5.60;99.90;;;;;;5036269;28;20196;-78
2024/03/06 01:07:37;;;;;;;24.88;13.00;;;5.60;99.90;;;;;;5034463;28;20024;-76
2024/03/06 01:10:03;;;;;;;26.00;12.93;;;5.70;99.90;;;;;;5033495;28;20433;-76
2024/03/06 01:12:29;;;;;;;28.92;13.05;;;5.70;99.90;;;;;;5033299;28;20029;-77
2024/03/06 01:14:54;;;;;;;27.08;12.80;;;5.70;99.90;;;;;;5032941;28;20435;-77
2024/03/06 01:17:20;;;;;;;26.88;13.25;;;5.70;99.90;;;;;;5034011;28;20097;-76
2024/03/06 01:19:46;;;;;;;25.63;13.35;;;5.70;99.90;;;;;;5033431;28;20079;-77
2024/03/06 01:22:13;;;;;;;26.98;12.73;;;6.80;99.90;;;;;;5032801;28;20029;-77
2024/03/06 01:24:39;;;;;;;30.80;13.77;;;5.70;99.90;;;;;;5032849;28;20029;-77
2024/03/06 01:27:04;;;;;;;27.20;13.20;;;5.70;99.90;;;;;;5033971;28;20021;-76
2024/03/06 01:29:30;;;;;;;24.50;12.43;;;5.70;99.90;;;;;;5033844;28;20473;-77
2024/03/06 01:31:55;;;;;;;25.98;13.43;;;5.70;99.90;;;;;;5032799;28;20024;-76
2024/03/06 01:34:22;;;;;;;26.05;12.50;;;5.80;99.90;;;;;;5032409;28;20033;-77
2024/03/06 01:36:47;;;;;;;26.75;13.02;;;5.80;99.90;;;;;;5034070;28;20056;-77
2024/03/06 01:39:13;;;;;;;24.73;12.30;;;5.80;99.90;;;;;;5033788;28;20025;-77
2024/03/06 01:41:48;;;;;;;28.23;13.30;;;5.80;99.90;;;;;;5032424;28;20021;-77
2024/03/06 01:44:17;;;;;;;29.13;14.20;;;5.80;99.90;;;;;;5034107;28;20100;-77
2024/03/06 01:46:44;;;;;;;28.17;13.57;;;5.80;99.90;;;;;;5032445;28;20052;-77
2024/03/06 01:49:13;;;;;;;31.65;14.68;;;5.80;99.90;;;;;;5032409;28;20508;-77
2024/03/06 01:51:40;;;;;;;27.17;13.83;;;5.80;99.90;;;;;;5032489;28;20034;-76
2024/03/06 01:54:06;;;;;;;24.70;12.55;;;5.80;99.90;;;;;;5032324;28;20283;-77
2024/03/06 01:56:35;;;;;;;28.75;13.68;;;5.80;99.90;;;;;;5032382;28;20023;-76
2024/03/06 01:59:03;;;;;;;30.05;14.00;;;5.80;99.90;;;;;;5032137;28;20018;-77
2024/03/06 02:01:29;;;;;;;;;;;5.80;99.90;;;;;;5033819;28;20456;-76
2024/03/06 02:03:56;;;;;;;27.67;13.40;;;;;;;;;;5033729;28;19963;-76
2024/03/06 02:06:22;;;;;;;26.48;13.48;;;5.80;99.90;;;;;;5033521;28;20487;-77
2024/03/06 02:08:48;;;;;;;27.05;13.25;;;5.80;99.90;;;;;;5033615;28;20144;-76
2024/03/06 02:11:15;;;;;;;28.15;13.27;;;5.80;99.90;;;;;;5033411;28;20489;-76
2024/03/06 02:13:41;;;;;;;31.38;14.32;;;5.80;99.90;;;;;;5031993;28;20060;-76
2024/03/06 02:16:07;;;;;;;28.75;14.07;;;5.80;99.90;;;;;;5033342;28;20022;-76
2024/03/06 02:18:33;;;;;;;31.52;13.93;;;5.80;99.90;;;;;;5031905;28;20022;-77
2024/03/06 02:20:58;;;;;;;28.80;13.30;;;5.80;99.90;;;;;;5033481;28;20021;-76
2024/03/06 02:23:24;;;;;;;30.73;14.10;;;5.80;99.90;;;;;;5033358;28;20064;-77
2024/03/06 02:25:50;;;;;;;27.05;13.20;;;5.80;99.90;;;;;;5033479;28;20028;-77
2024/03/06 02:28:16;;;;;;;31.80;14.80;;;5.80;99.90;;;;;;5033268;28;20037;-77
2024/03/06 02:30:43;;;;;;;34.55;14.50;;;5.80;99.90;;;;;;5032148;28;20026;-76
2024/03/06 02:33:11;;;;;;;25.60;13.43;;;5.80;99.90;;;;;;5035361;28;20104;-77
2024/03/06 02:35:38;;;;;;;26.17;13.02;;;5.80;99.90;;;;;;5036076;28;20048;-77
2024/03/06 02:38:07;;;;;;;27.92;14.32;;;5.80;99.90;;;;;;5035991;28;20060;-76
2024/03/06 02:40:33;;;;;;;32.15;15.20;;;5.80;99.90;;;;;;5035802;28;20117;-77
2024/03/06 02:42:59;;;;;;;28.08;14.50;;;5.80;99.90;;;;;;5037326;28;20026;-77
2024/03/06 02:45:24;;;;;;;32.35;14.82;;;5.70;99.90;;;;;;5036385;28;20029;-77
2024/03/06 02:47:50;;;;;;;32.25;14.32;;;5.70;99.90;;;;;;5037357;28;20484;-78
2024/03/06 02:50:16;;;;;;;28.52;13.85;;;5.70;99.90;;;;;;5038299;28;20030;-78
2024/03/06 02:52:41;;;;;;;33.72;15.25;;;5.80;99.90;;;;;;5038269;28;20441;-78
2024/03/06 02:55:08;;;;;;;33.55;15.52;;;5.70;99.90;;;;;;5036107;28;20546;-76
2024/03/06 02:57:33;;;;;;;30.58;15.38;;;5.70;99.90;;;;;;5036022;28;20033;-78
2024/03/06 02:59:59;;;;;;;32.45;15.00;;;5.70;99.90;;;;;;5036704;28;20071;-77
2024/03/06 03:02:28;;;;;;;33.33;15.27;;;6.90;99.90;;;;;;5037218;28;20045;-77
2024/03/06 03:04:54;;;;;;;27.42;13.07;;;5.80;99.90;;;;;;5035923;28;20021;-77
2024/03/06 03:07:19;;;;;;;32.20;14.55;;;5.80;99.90;;;;;;5037047;28;20028;-77
2024/03/06 03:09:45;;;;;;;34.60;15.43;;;5.80;99.90;;;;;;5036998;28;20029;-78
2024/03/06 03:12:11;;;;;;;33.35;15.43;;;5.80;99.90;;;;;;5036879;28;20030;-78
2024/03/06 03:14:37;;;;;;;31.33;14.95;;;5.80;99.90;;;;;;5036933;28;20071;-77
2024/03/06 03:17:05;;;;;;;35.15;15.60;;;5.80;99.90;;;;;;5036737;28;20025;-77
2024/03/06 03:19:31;;;;;;;33.65;14.50;;;5.80;99.90;;;;;;5036754;28;20481;-78
2024/03/06 03:21:57;;;;;;;33.50;15.90;;;6.90;99.90;;;;;;5036919;28;20022;-78
2024/03/06 03:24:25;;;;;;;31.25;15.32;;;5.80;99.90;;;;;;5037584;28;20031;-77
2024/03/06 03:26:51;;;;;;;32.95;14.73;;;5.80;99.90;;;;;;5035435;28;20049;-78
2024/03/06 03:29:17;;;;;;;32.83;15.75;;;5.80;99.90;;;;;;5035252;28;20489;-77
2024/03/06 03:31:42;;;;;;;32.15;14.55;;;5.80;99.90;;;;;;5035268;28;20028;-76
2024/03/06 03:34:08;;;;;;;31.63;15.10;;;5.80;99.90;;;;;;5035175;28;20026;-77
2024/03/06 03:36:34;;;;;;;31.33;15.23;;;5.80;99.90;;;;;;5036911;28;20028;-76
2024/03/06 03:39:00;;;;;;;31.65;15.00;;;5.80;99.90;;;;;;5039289;28;20026;-80
2024/03/06 03:41:26;;;;;;;31.02;15.57;;;5.80;99.90;;;;;;5039181;28;20021;-79
2024/03/06 03:43:51;;;;;;;34.08;15.13;;;5.80;99.90;;;;;;5038549;28;20435;-79
2024/03/06 03:46:17;;;;;;;33.05;14.60;;;5.80;99.90;;;;;;5039408;28;20037;-79
2024/03/06 03:48:43;;;;;;;32.30;14.98;;;5.80;99.90;;;;;;5039457;28;20392;-79
2024/03/06 03:51:09;;;;;;;31.02;15.43;;;5.80;99.90;;;;;;5038563;28;20366;-79
2024/03/06 03:53:35;;;;;;;29.88;14.52;;;5.80;99.90;;;;;;5038682;28;20120;-80
2024/03/06 03:56:01;;;;;;;31.85;14.38;;;5.80;99.90;;;;;;5037698;28;20057;-79
2024/03/06 03:58:27;;;;;;;32.58;14.63;;;5.80;99.90;;;;;;5039594;28;20017;-79
2024/03/06 04:00:54;;;;;;;32.45;16.02;;;5.80;99.90;;;;;;5038797;28;20381;-79
2024/03/06 04:03:20;;;;;;;31.52;15.02;;;5.80;99.90;;;;;;5040808;28;20033;-79
2024/03/06 04:05:49;;;;;;;31.15;14.52;;;5.80;99.90;;;;;;5038561;28;20112;-79
2024/03/06 04:08:15;;;;;;;38.60;16.00;;;5.80;99.90;;;;;;5037255;28;20025;-78
2024/03/06 04:10:44;;;;;;;33.58;15.15;;;5.80;99.90;;;;;;5038415;28;20028;-79
2024/03/06 04:13:11;;;;;;;31.92;15.05;;;5.80;99.90;;;;;;5037635;28;20112;-79
2024/03/06 04:15:37;;;;;;;31.23;15.23;;;5.80;99.90;;;;;;5037710;28;20025;-79
2024/03/06 04:18:03;;;;;;;34.08;15.02;;;5.90;99.90;;;;;;5038987;28;20025;-80
2024/03/06 04:20:28;;;;;;;32.83;16.08;;;5.90;99.90;;;;;;5037626;28;20056;-80
2024/03/06 04:22:54;;;;;;;36.47;16.77;;;5.90;99.90;;;;;;5037829;28;20033;-79
2024/03/06 04:25:20;;;;;;;34.40;16.23;;;5.90;99.90;;;;;;5038276;28;20138;-79
2024/03/06 04:27:46;;;;;;;39.92;17.08;;;5.80;99.90;;;;;;5038294;28;20026;-80
2024/03/06 04:30:12;;;;;;;37.17;17.30;;;5.80;99.90;;;;;;5039005;28;20028;-79
2024/03/06 04:32:38;;;;;;;38.97;17.42;;;5.80;99.90;;;;;;5037778;28;20018;-80
2024/03/06 04:35:05;;;;;;;33.70;16.33;;;5.80;99.90;;;;;;5038478;28;20017;-80
2024/03/06 04:37:33;;;;;;;36.88;17.17;;;5.80;99.90;;;;;;5038710;28;20017;-79
2024/03/06 04:39:59;;;;;;;28.27;13.47;;;5.80;99.90;;;;;;5036027;28;20039;-80
2024/03/06 04:42:24;;;;;;;34.35;16.35;;;6.10;99.90;;;;;;5036893;28;20682;-79
2024/03/06 04:44:50;;;;;;;35.70;17.85;;;;;;;;;;5038517;28;20017;-79
2024/03/06 04:47:16;;;;;;;35.67;16.75;;;5.80;99.90;;;;;;5037629;28;20030;-80
2024/03/06 04:49:42;;;;;;;33.63;16.88;;;;;;;;;;5037307;28;20032;-79
2024/03/06 04:52:09;;;;;;;34.75;16.90;;;5.80;99.90;;;;;;5036015;28;20037;-80
2024/03/06 04:54:34;;;;;;;36.28;17.45;;;9.30;99.90;;;;;;5036878;28;20025;-79
2024/03/06 04:57:00;;;;;;;36.85;17.83;;;5.70;99.90;;;;;;5036121;28;20028;-80
2024/03/06 04:59:28;;;;;;;35.35;17.42;;;5.70;99.90;;;;;;5037003;28;20013;-78
2024/03/06 05:01:53;;;;;;;34.92;16.48;;;5.60;99.90;;;;;;5034844;28;20041;-78
2024/03/06 05:04:19;;;;;;;34.30;16.48;;;5.60;99.90;;;;;;5033932;28;20041;-78
2024/03/06 05:06:45;;;;;;;33.30;16.25;;;5.50;99.90;;;;;;5035069;28;20063;-78
2024/03/06 05:09:11;;;;;;;38.67;17.40;;;5.40;99.90;;;;;;5035170;28;20045;-78
2024/03/06 05:11:38;;;;;;;30.83;14.75;;;5.40;99.90;;;;;;5034454;28;20468;-79
2024/03/06 05:14:04;;;;;;;36.40;16.73;;;5.30;99.90;;;;;;5035208;28;20025;-78
2024/03/06 05:16:29;;;;;;;37.95;16.17;;;5.20;99.90;;;;;;5034916;28;20477;-78
2024/03/06 05:18:55;;;;;;;39.47;16.13;;;5.10;99.90;;;;;;5035503;28;20030;-78
2024/03/06 05:21:22;;;;;;;32.72;17.30;;;5.10;99.90;;;;;;5035437;28;20026;-78
2024/03/06 05:23:48;;;;;;;37.13;16.98;;;5.00;99.90;;;;;;5035048;28;20025;-78
2024/03/06 05:26:15;;;;;;;33.67;16.23;;;5.00;99.90;;;;;;5033502;28;20025;-78
2024/03/06 05:28:41;;;;;;;36.80;16.95;;;4.90;99.90;;;;;;5033275;28;20025;-78
2024/03/06 05:31:20;;;;;;;35.70;17.13;;;4.80;99.90;;;;;;5035987;28;20026;-78
2024/03/06 05:33:49;;;;;;;;;;;4.70;99.90;;;;;;5035023;28;20029;-77
2024/03/06 05:36:15;;;;;;;33.17;15.40;;;4.70;99.90;;;;;;5034753;28;19927;-78
2024/03/06 05:38:41;;;;;;;34.15;16.60;;;4.60;99.90;;;;;;5043733;28;20078;-80
2024/03/06 05:41:08;;;;;;;31.02;15.45;;;5.50;99.90;;;;;;5045849;28;20028;-79
2024/03/06 05:43:34;;;;;;;33.67;16.25;;;;;;;;;;5048219;28;20048;-81
2024/03/06 05:46:00;;;;;;;32.65;16.58;;;4.40;99.90;;;;;;5046183;28;20101;-80
2024/03/06 05:48:26;;;;;;;35.17;17.25;;;4.40;99.90;;;;;;5045376;28;20051;-80
2024/03/06 05:50:53;;;;;;;33.30;16.15;;;4.50;99.90;;;;;;5046628;28;20037;-79
2024/03/06 05:53:19;;;;;;;35.45;16.15;;;4.30;99.90;;;;;;5046945;28;20052;-78
2024/03/06 05:55:45;;;;;;;35.10;15.73;;;4.20;99.90;;;;;;5033731;28;20033;-77
2024/03/06 05:58:11;;;;;;;35.03;16.73;;;4.20;99.90;;;;;;5035054;28;20083;-77
2024/03/06 06:00:37;;;;;;;37.75;17.35;;;4.10;99.90;;;;;;5034235;28;20014;-79
2024/03/06 06:03:03;;;;;;;34.20;16.02;;;4.10;99.90;;;;;;5037571;28;20030;-80
2024/03/06 06:05:29;;;;;;;34.15;15.68;;;4.10;99.90;;;;;;5039351;28;20014;-82
2024/03/06 06:07:55;;;;;;;33.92;16.05;;;4.00;99.90;;;;;;5038426;28;20013;-80
2024/03/06 06:10:20;;;;;;;34.63;16.55;;;4.20;99.90;;;;;;5039123;28;20028;-81
2024/03/06 06:12:46;;;;;;;34.92;16.23;;;3.90;99.90;;;;;;5039175;28;20026;-81
2024/03/06 06:15:11;;;;;;;34.03;16.00;;;4.20;99.90;;;;;;5039221;28;20097;-81
2024/03/06 06:17:37;;;;;;;35.70;16.17;;;3.80;99.90;;;;;;5039566;28;20041;-82
2024/03/06 06:20:09;;;;;;;34.95;17.05;;;3.80;99.90;;;;;;5038007;28;20048;-81
2024/03/06 06:22:36;;;;;;;32.05;15.43;;;3.90;99.90;;;;;;5039233;28;20026;-80
2024/03/06 06:25:03;;;;;;;34.60;16.40;;;3.90;99.90;;;;;;5039313;28;20033;-81
2024/03/06 06:27:29;;;;;;;34.70;16.25;;;;;;;;;;5038215;28;20104;-82
2024/03/06 06:29:55;;;;;;;38.88;16.35;;;4.00;99.90;;;;;;5037927;28;20028;-81
2024/03/06 06:32:21;;;;;;;39.45;17.73;;;;;;;;;;5037865;28;20104;-81
2024/03/06 06:34:47;;;;;;;39.70;17.85;;;;;;;;;;5037039;28;20060;-81
2024/03/06 06:37:14;;;;;;;49.47;18.48;;;4.10;99.90;;;;;;5037545;28;20025;-81
2024/03/06 06:39:40;;;;;;;48.83;19.58;;;;;;;;;;5036841;28;20100;-81
2024/03/06 06:42:06;;;;;;;57.92;21.13;;;;;;;;;;5038432;28;20508;-80
2024/03/06 06:44:32;;;;;;;62.40;20.55;;;4.40;99.90;;;;;;5039686;28;20057;-81
2024/03/06 06:46:57;;;;;;;63.08;19.30;;;4.50;99.90;;;;;;5037878;28;20530;-81
2024/03/06 06:49:23;;;;;;;61.85;19.52;;;4.60;99.90;;;;;;5038826;28;20052;-81
2024/03/06 06:51:49;;;;;;;83.70;19.40;;;4.60;99.90;;;;;;5039438;28;20110;-82
2024/03/06 06:54:15;;;;;;;74.05;19.40;;;4.70;99.90;;;;;;5040567;28;20028;-82
2024/03/06 06:56:41;;;;;;;121.20;21.13;;;4.70;99.90;;;;;;5040592;28;20025;-81
2024/03/06 06:59:07;;;;;;;97.03;21.13;;;4.70;99.90;;;;;;5038871;28;20025;-81
2024/03/06 07:01:32;;;;;;;107.82;19.80;;;4.80;99.90;;;;;;5038176;28;20036;-81
2024/03/06 07:03:58;;;;;;;64.30;20.92;;;4.80;99.90;;;;;;5039850;28;20033;-82
2024/03/06 07:06:24;;;;;;;100.72;21.98;;;4.80;99.90;;;;;;5040771;28;20122;-81
2024/03/06 07:08:50;;;;;;;121.25;20.58;;;4.90;99.90;;;;;;5039058;28;20026;-82
2024/03/06 07:11:20;;;;;;;87.20;20.48;;;5.00;99.90;;;;;;5038705;28;20108;-82
2024/03/06 07:13:45;;;;;;;80.75;19.92;;;5.00;99.90;;;;;;5040057;28;20022;-82
2024/03/06 07:16:12;;;;;;;92.50;21.45;;;;;;;;;;5038657;28;20021;-81
2024/03/06 07:18:37;;;;;;;81.63;19.38;;;5.10;99.90;;;;;;5041048;28;20489;-82
2024/03/06 07:21:03;;;;;;;87.78;20.42;;;5.10;99.90;;;;;;5042580;28;20049;-81
2024/03/06 07:23:28;;;;;;;66.72;19.25;;;5.10;99.90;;;;;;5042654;28;20049;-81
2024/03/06 07:25:54;;;;;;;61.05;19.33;;;6.20;99.90;;;;;;5042058;28;20026;-81
2024/03/06 07:28:21;;;;;;;52.33;20.25;;;5.30;99.90;;;;;;5041892;28;20022;-81
2024/03/06 07:30:47;;;;;;;53.20;18.65;;;5.30;99.90;;;;;;5043034;28;20036;-82
2024/03/06 07:33:13;;;;;;;63.83;19.52;;;7.30;99.90;;;;;;5042269;28;20017;-82
2024/03/06 07:35:39;;;;;;;50.45;19.63;;;5.40;99.90;;;;;;5044235;28;20025;-82
2024/03/06 07:38:05;;;;;;;57.50;19.67;;;5.50;99.90;;;;;;5043947;28;20076;-81
2024/03/06 07:40:32;;;;;;;42.42;19.05;;;5.50;99.90;;;;;;5043152;28;20108;-82
2024/03/06 07:42:59;;;;;;;43.85;19.25;;;5.50;99.90;;;;;;5042789;28;20028;-81
2024/03/06 07:45:26;;;;;;;46.13;19.38;;;5.60;99.90;;;;;;5042707;28;20484;-82
2024/03/06 07:47:51;;;;;;;47.95;21.05;;;5.70;99.90;;;;;;5042892;28;20038;-82
2024/03/06 07:50:18;;;;;;;44.63;20.23;;;;;;;;;;5041138;28;20017;-82
2024/03/06 07:52:47;;;;;;;48.13;20.65;;;5.80;99.90;;;;;;5043090;28;20083;-82
2024/03/06 07:55:13;;;;;;;47.05;20.05;;;;;;;;;;5043014;28;20024;-82
2024/03/06 07:57:39;;;;;;;63.17;20.38;;;5.90;99.90;;;;;;5041517;28;20092;-82
2024/03/06 08:00:14;;;;;;;48.80;20.45;;;5.90;99.90;;;;;;5042790;28;20065;-82
2024/03/06 08:02:43;;;;;;;57.00;22.73;;;6.00;99.90;;;;;;5042201;28;20033;-82
2024/03/06 08:05:14;;;;;;;;;;;6.10;99.90;;;;;;5042712;28;20056;-82
2024/03/06 08:07:44;;;;;;;54.72;21.05;;;6.20;99.90;;;;;;5041635;28;19951;-82
2024/03/06 08:10:13;;;;;;;54.17;21.70;;;;;;;;;;5041266;28;20040;-82
2024/03/06 08:12:43;;;;;;;56.33;20.98;;;6.30;99.90;;;;;;5041862;28;20079;-82
2024/03/06 08:15:12;;;;;;;59.67;21.10;;;6.40;99.90;;;;;;5039804;28;20025;-82
2024/03/06 08:17:41;;;;;;;56.92;20.70;;;6.40;99.90;;;;;;5040073;28;20112;-82
2024/03/06 08:20:08;;;;;;;44.63;19.20;;;6.50;99.90;;;;;;5041926;28;20021;-82
2024/03/06 08:22:43;;;;;;;56.90;19.92;;;6.50;99.90;;;;;;5041874;28;20048;-82
2024/03/06 08:25:10;;;;;;;61.20;20.50;;;6.70;99.90;;;;;;5039265;28;20017;-82
2024/03/06 08:27:37;;;;;;;54.47;21.30;;;6.70;99.90;;;;;;5040581;28;20469;-82
2024/03/06 08:30:07;;;;;;;54.78;19.95;;;6.80;99.90;;;;;;5039064;28;20021;-81
2024/03/06 08:32:35;;;;;;;47.83;20.05;;;;;;;;;;5042001;28;20108;-81
2024/03/06 08:35:05;;;;;;;49.37;20.83;;;6.90;99.90;;;;;;5042776;28;20060;-83
2024/03/06 08:37:34;;;;;;;47.15;20.52;;;7.00;99.90;;;;;;5041898;28;20025;-81
2024/03/06 08:40:01;;;;;;;50.75;20.83;;;7.10;99.90;;;;;;5041789;28;20088;-81
2024/03/06 08:42:27;;;;;;;52.40;20.02;;;7.20;99.90;;;;;;5042291;28;20018;-81
2024/03/06 08:44:53;;;;;;;53.40;20.55;;;7.30;99.90;;;;;;5042536;28;20021;-81
2024/03/06 08:47:19;;;;;;;56.17;19.90;;;7.40;99.90;;;;;;5042491;28;20051;-81
2024/03/06 08:49:45;;;;;;;41.55;19.02;;;7.40;99.90;;;;;;5041096;28;20041;-81
2024/03/06 08:52:11;;;;;;;53.90;18.73;;;;;;;;;;5040366;28;20013;-81
2024/03/06 08:54:37;;;;;;;53.92;19.65;;;7.50;99.90;;;;;;5040968;28;20040;-82
2024/03/06 08:57:03;;;;;;;50.90;19.35;;;7.50;99.90;;;;;;5041055;28;20477;-81
2024/03/06 08:59:30;;;;;;;43.58;19.33;;;7.50;99.90;;;;;;5041298;28;20026;-81
2024/03/06 09:01:56;;;;;;;49.05;20.27;;;7.50;99.90;;;;;;5041600;28;20014;-81
2024/03/06 09:04:22;;;;;;;51.75;19.85;;;7.60;99.90;;;;;;5041634;28;20033;-81
2024/03/06 09:06:48;;;;;;;43.42;18.88;;;7.60;99.90;;;;;;5041853;28;20048;-82
2024/03/06 09:09:14;;;;;;;37.20;18.50;;;;;;;;;;5041205;28;20018;-81
2024/03/06 09:11:44;;;;;;;39.83;18.98;;;;;;;;;;5041675;28;20036;-81
2024/03/06 09:14:10;;;;;;;41.53;19.20;;;7.80;99.90;;;;;;5042009;28;20041;-81
2024/03/06 09:16:36;;;;;;;39.38;17.88;;;7.80;99.90;;;;;;5040564;28;20018;-81
2024/03/06 09:19:01;;;;;;;36.40;18.20;;;7.80;99.90;;;;;;5040562;28;20022;-81
2024/03/06 09:21:28;;;;;;;35.55;18.08;;;7.90;99.90;;;;;;5040176;28;20029;-81
2024/03/06 09:23:53;;;;;;;39.40;19.80;;;7.90;99.90;;;;;;5042388;28;20030;-81
2024/03/06 09:26:20;;;;;;;38.60;18.55;;;8.10;99.90;;;;;;5041518;28;20028;-81
2024/03/06 09:28:46;;;;;;;35.88;17.30;;;8.30;99.90;;;;;;5039647;28;20060;-81
2024/03/06 09:31:13;;;;;;;36.80;17.67;;;8.30;99.90;;;;;;5038983;28;20488;-81
2024/03/06 09:33:39;;;;;;;33.03;16.98;;;8.60;99.90;;;;;;5040402;28;20395;-81
2024/03/06 09:36:06;;;;;;;30.88;15.38;;;8.70;99.90;;;;;;5039429;28;20013;-81
2024/03/06 09:38:31;;;;;;;28.45;15.77;;;8.90;99.90;;;;;;5040342;28;20036;-81
2024/03/06 09:40:57;;;;;;;31.30;15.43;;;8.90;99.90;;;;;;5040087;28;20021;-81
2024/03/06 09:43:24;;;;;;;31.70;14.30;;;8.90;99.90;;;;;;5041267;28;20022;-81
2024/03/06 09:45:50;;;;;;;33.95;14.48;;;9.10;99.90;;;;;;5039112;28;20052;-82
2024/03/06 09:48:21;;;;;;;28.45;14.30;;;9.10;99.90;;;;;;5038714;28;20028;-81
2024/03/06 09:50:47;;;;;;;29.98;14.52;;;;;;;;;;5039064;28;20120;-81
2024/03/06 09:53:15;;;;;;;30.80;15.43;;;9.00;99.90;;;;;;5038108;28;20026;-82
2024/03/06 09:55:42;;;;;;;26.88;12.88;;;9.10;99.90;;;;;;5038600;28;20400;-81
2024/03/06 09:58:08;;;;;;;23.52;12.77;;;9.10;99.90;;;;;;5038585;28;20045;-81
2024/03/06 10:00:37;;;;;;;24.15;13.15;;;9.10;99.90;;;;;;5040671;28;20025;-81
2024/03/06 10:03:08;;;;;;;26.98;14.40;;;9.10;99.90;;;;;;5038003;28;20116;-82
2024/03/06 10:05:34;;;;;;;24.38;12.02;;;9.00;99.90;;;;;;5037721;28;20112;-81
2024/03/06 10:08:00;;;;;;;25.20;13.23;;;9.10;99.90;;;;;;5039753;28;20060;-81
2024/03/06 10:10:27;;;;;;;23.45;12.18;;;9.10;99.90;;;;;;5038382;28;20025;-81
2024/03/06 10:12:53;;;;;;;24.55;12.55;;;9.10;99.90;;;;;;5037775;28;20030;-82
2024/03/06 10:15:19;;;;;;;27.13;13.80;;;9.10;99.90;;;;;;5039680;28;20013;-81
2024/03/06 10:17:49;;;;;;;21.70;11.02;;;9.10;99.90;;;;;;5038475;28;20013;-81
2024/03/06 10:20:24;;;;;;;22.67;11.55;;;9.10;99.90;;;;;;5037959;28;20535;-81
2024/03/06 10:22:51;;;;;;;23.58;11.60;;;9.10;99.90;;;;;;5038074;28;20078;-82
2024/03/06 10:25:21;;;;;;;23.83;11.27;;;9.10;99.90;;;;;;5039302;28;20492;-82
2024/03/06 10:28:06;;;;;;;20.45;11.40;;;9.10;99.90;;;;;;5038194;28;20032;-82
2024/03/06 10:30:37;;;;;;;20.48;11.70;;;9.10;99.90;;;;;;5038128;28;20057;-82
2024/03/06 10:33:06;;;;;;;21.27;10.00;;;9.20;99.90;;;;;;5038597;28;20551;-81
2024/03/06 10:35:38;;;;;;;20.13;10.38;;;9.20;99.90;;;;;;5038556;28;20026;-81
2024/03/06 10:38:06;;;;;;;21.20;11.25;;;9.20;99.90;;;;;;5040686;28;20030;-81
2024/03/06 10:40:33;;;;;;;20.15;11.18;;;9.20;99.90;;;;;;5038687;28;20085;-81
2024/03/06 10:43:00;;;;;;;21.92;9.65;;;9.30;99.90;;;;;;5039858;28;20028;-81
2024/03/06 10:45:50;;;;;;;21.80;10.60;;;9.40;99.90;;;;;;5039756;28;20026;-81
2024/03/06 10:48:18;;;;;;;20.20;10.38;;;9.50;99.90;;;;;;5030646;28;20071;-81
2024/03/06 10:50:45;;;;;;;16.47;9.10;;;9.60;99.90;;;;;;5037699;28;20029;-82
2024/03/06 10:53:13;;;;;;;16.48;9.55;;;9.70;99.90;;;;;;5040087;28;20021;-82
2024/03/06 10:55:39;;;;;;;20.75;10.23;;;9.70;99.90;;;;;;5042823;28;20481;-81
2024/03/06 10:58:09;;;;;;;20.00;9.82;;;10.00;99.90;;;;;;5041047;28;20028;-82
2024/03/06 11:00:38;;;;;;;17.50;9.27;;;10.00;99.90;;;;;;5042042;28;20041;-81
2024/03/06 11:03:09;;;;;;;;;;;10.30;99.90;;;;;;5040546;28;20057;-80
2024/03/06 11:05:36;;;;;;;16.60;8.15;;;10.50;99.90;;;;;;5040769;28;20000;-82
2024/03/06 11:08:03;;;;;;;16.95;8.63;;;10.50;99.90;;;;;;5042037;28;20049;-81
2024/03/06 11:10:36;;;;;;;17.58;8.40;;;10.50;99.90;;;;;;5042094;28;20113;-82
2024/03/06 11:13:04;;;;;;;17.83;8.90;;;10.60;99.90;;;;;;5040110;28;20038;-82
2024/03/06 11:15:30;;;;;;;17.23;8.77;;;10.70;99.90;;;;;;5040623;28;20021;-82
2024/03/06 11:17:56;;;;;;;18.90;9.70;;;10.80;99.90;;;;;;5040681;28;20018;-81
2024/03/06 11:20:24;;;;;;;14.38;8.32;;;;;;;;;;5040013;28;20026;-82
2024/03/06 11:22:56;;;;;;;15.68;8.60;;;11.00;99.90;;;;;;5040238;28;20497;-81
2024/03/06 11:25:50;;;;;;;13.52;8.00;;;11.00;99.90;;;;;;5040150;28;20064;-81
2024/03/06 11:28:29;;;;;;;14.32;7.90;;;11.20;99.90;;;;;;5040830;28;20032;-80
2024/03/06 11:30:59;;;;;;;16.85;8.00;;;11.40;99.90;;;;;;5038944;28;20052;-81
2024/03/06 11:33:39;;;;;;;16.42;8.45;;;11.40;99.90;;;;;;5039196;28;20035;-82
2024/03/06 11:36:20;;;;;;;21.08;9.23;;;11.70;99.90;;;;;;5040198;28;20022;-82
2024/03/06 11:39:09;;;;;;;18.73;8.07;;;11.80;99.90;;;;;;5040714;28;20109;-80
2024/03/06 11:41:44;;;;;;;13.48;7.45;;;11.90;99.90;;;;;;5039960;28;20071;-80
2024/03/06 11:44:15;;;;;;;13.35;7.93;;;12.00;99.90;;;;;;5040202;28;20026;-79
2024/03/06 11:47:00;;;;;;;13.90;7.00;;;12.10;99.90;;;;;;5039980;28;20028;-80
2024/03/06 11:49:33;;;;;;;16.55;8.65;;;12.20;99.90;;;;;;5040662;28;20025;-80
2024/03/06 11:52:04;;;;;;;20.08;9.10;;;12.30;99.90;;;;;;5040488;28;20374;-82
2024/03/06 11:54:31;;;;;;;17.10;8.10;;;12.40;99.90;;;;;;5039738;28;20017;-81
2024/03/06 11:56:59;;;;;;;23.33;8.90;;;12.60;99.90;;;;;;5039852;28;20136;-81
2024/03/06 11:59:33;;;;;;;15.50;8.18;;;12.60;99.90;;;;;;5039016;28;20480;-80
2024/03/06 12:02:04;;;;;;;14.82;7.57;;;12.70;99.90;;;;;;5039369;28;20112;-80
2024/03/06 12:04:35;;;;;;;14.52;7.18;;;12.80;99.90;;;;;;5039843;28;20036;-80
2024/03/06 12:07:05;;;;;;;16.52;8.88;;;13.00;99.90;;;;;;5038582;28;20037;-80
2024/03/06 12:09:32;;;;;;;17.08;9.15;;;13.10;99.90;;;;;;5040757;28;20114;-79
2024/03/06 12:11:58;;;;;;;16.70;9.73;;;13.10;99.90;;;;;;5040051;28;20029;-80
2024/03/06 12:14:24;;;;;;;16.25;7.05;;;13.30;99.90;;;;;;5039886;28;20447;-80
2024/03/06 12:17:03;;;;;;;10.68;5.47;;;13.50;99.90;;;;;;5039918;28;20436;-81
2024/03/06 12:19:33;;;;;;;16.40;7.40;;;13.60;99.90;;;;;;5038365;28;20477;-80
2024/03/06 12:22:04;;;;;;;15.82;7.30;;;13.80;99.90;;;;;;5041423;28;20044;-78
2024/03/06 12:24:31;;;;;;;15.80;8.43;;;13.90;99.90;;;;;;5039008;28;20037;-78
2024/03/06 12:27:04;;;;;;;14.82;7.35;;;14.00;99.90;;;;;;5039278;28;20029;-80
2024/03/06 12:29:34;;;;;;;14.82;6.10;;;14.20;99.90;;;;;;5043028;28;20033;-79
2024/03/06 12:32:01;;;;;;;11.80;4.95;;;14.40;99.90;;;;;;5041162;28;20021;-79
2024/03/06 12:34:26;;;;;;;15.57;7.00;;;14.40;99.90;;;;;;5041948;28;20021;-79
2024/03/06 12:36:52;;;;;;;13.30;5.95;;;14.50;99.90;;;;;;5042789;28;20028;-79
2024/03/06 12:39:22;;;;;;;10.75;5.75;;;14.70;99.90;;;;;;5040125;28;20073;-79
2024/03/06 12:41:49;;;;;;;10.15;4.35;;;14.70;99.90;;;;;;5041812;28;20022;-79
2024/03/06 12:44:15;;;;;;;9.30;5.10;;;14.90;99.90;;;;;;5040959;28;20022;-80